Terminal Aerodrome Forecast
Issued by NWS Sioux Falls, SD

Home | Current Version | Previous Version | Text Only | Print | Product List | Glossary On
Versions: 1 2 3 4 5 6 7 8 9 10 11 12 13 14 15 16 17 18 19
000
FTUS43 KFSD 241733 AAB
TAFSUX
TAF AMD
KSUX 241733Z 2418/2518 08014G22KT 1SM -SN BLSN OVC008
     FM241930 06017KT 2SM -SN OVC003
     FM242100 06016KT 3/4SM -SN OVC003
     FM250000 05016KT 1SM -SN BLSN OVC003
     FM250300 04015KT 1 1/2SM -SN OVC003
     FM250600 36015KT 1 1/2SM -SN BLSN OVC003
     FM251500 33021G29KT 1SM -SN BLSN OVC010=

USA.gov is the U.S. government's official web portal to all federal, state and local government web resources and services.